sensor_id;sensor_type;location;lat;lon;timestamp;P1;durP1;ratioP1;P2;durP2;ratioP2
51515;SDS011;37603;55.614;37.326;2023-02-11T00:05:04;18.7;;;7.3;;
51515;SDS011;37603;55.614;37.326;2023-02-11T00:11:03;22.2;;;14.1;;
51515;SDS011;37603;55.614;37.326;2023-02-11T00:17:01;16.9;;;6.6;;
51515;SDS011;37603;55.614;37.326;2023-02-11T00:22:59;21.2;;;12.2;;
51515;SDS011;37603;55.614;37.326;2023-02-11T00:29:00;19.9;;;12.4;;
51515;SDS011;37603;55.614;37.326;2023-02-11T00:34:56;17.2;;;6.3;;
51515;SDS011;37603;55.614;37.326;2023-02-11T00:40:55;20.0;;;11.6;;
51515;SDS011;37603;55.614;37.326;2023-02-11T00:46:53;15.2;;;6.1;;
51515;SDS011;37603;55.614;37.326;2023-02-11T01:04:49;16.6;;;5.3;;
51515;SDS011;37603;55.614;37.326;2023-02-11T01:10:52;12.7;;;4.8;;
51515;SDS011;37603;55.614;37.326;2023-02-11T01:16:46;9.7;;;4.2;;
51515;SDS011;37603;55.614;37.326;2023-02-11T01:22:44;10.3;;;4.8;;
51515;SDS011;37603;55.614;37.326;2023-02-11T01:28:43;11.9;;;4.4;;
51515;SDS011;37603;55.614;37.326;2023-02-11T01:34:41;11.4;;;5.0;;
51515;SDS011;37603;55.614;37.326;2023-02-11T01:40:40;14.2;;;8.9;;
51515;SDS011;37603;55.614;37.326;2023-02-11T01:46:38;10.4;;;4.1;;
51515;SDS011;37603;55.614;37.326;2023-02-11T01:52:37;13.0;;;4.4;;
51515;SDS011;37603;55.614;37.326;2023-02-11T01:58:35;11.6;;;4.2;;
51515;SDS011;37603;55.614;37.326;2023-02-11T02:04:34;10.4;;;3.8;;
51515;SDS011;37603;55.614;37.326;2023-02-11T02:10:33;11.5;;;4.0;;
51515;SDS011;37603;55.614;37.326;2023-02-11T02:16:32;12.1;;;4.3;;
51515;SDS011;37603;55.614;37.326;2023-02-11T02:22:38;9.8;;;4.0;;
51515;SDS011;37603;55.614;37.326;2023-02-11T02:28:34;12.7;;;4.0;;
51515;SDS011;37603;55.614;37.326;2023-02-11T02:34:28;10.7;;;4.4;;
51515;SDS011;37603;55.614;37.326;2023-02-11T02:46:24;10.4;;;3.5;;
51515;SDS011;37603;55.614;37.326;2023-02-11T02:52:25;8.6;;;3.4;;
51515;SDS011;37603;55.614;37.326;2023-02-11T03:04:20;7.1;;;3.1;;
51515;SDS011;37603;55.614;37.326;2023-02-11T03:10:18;7.3;;;3.2;;
51515;SDS011;37603;55.614;37.326;2023-02-11T03:16:17;9.7;;;3.8;;
51515;SDS011;37603;55.614;37.326;2023-02-11T03:22:15;7.9;;;3.2;;
51515;SDS011;37603;55.614;37.326;2023-02-11T03:28:14;13.5;;;6.7;;
51515;SDS011;37603;55.614;37.326;2023-02-11T03:34:12;8.8;;;3.4;;
51515;SDS011;37603;55.614;37.326;2023-02-11T03:40:10;9.5;;;3.3;;
51515;SDS011;37603;55.614;37.326;2023-02-11T03:46:08;12.1;;;6.7;;
51515;SDS011;37603;55.614;37.326;2023-02-11T03:52:07;8.9;;;3.3;;
51515;SDS011;37603;55.614;37.326;2023-02-11T03:58:05;8.3;;;3.4;;
51515;SDS011;37603;55.614;37.326;2023-02-11T04:04:04;9.1;;;3.6;;
51515;SDS011;37603;55.614;37.326;2023-02-11T04:10:02;7.0;;;2.9;;
51515;SDS011;37603;55.614;37.326;2023-02-11T04:16:00;9.9;;;5.4;;
51515;SDS011;37603;55.614;37.326;2023-02-11T04:21:59;7.7;;;2.8;;
51515;SDS011;37603;55.614;37.326;2023-02-11T04:27:57;6.0;;;2.6;;
51515;SDS011;37603;55.614;37.326;2023-02-11T04:33:56;8.2;;;2.6;;
51515;SDS011;37603;55.614;37.326;2023-02-11T04:39:54;9.8;;;2.7;;
51515;SDS011;37603;55.614;37.326;2023-02-11T04:45:55;7.1;;;3.0;;
51515;SDS011;37603;55.614;37.326;2023-02-11T04:51:51;6.7;;;2.8;;
51515;SDS011;37603;55.614;37.326;2023-02-11T04:57:50;8.1;;;2.5;;
51515;SDS011;37603;55.614;37.326;2023-02-11T05:03:48;9.3;;;2.6;;
51515;SDS011;37603;55.614;37.326;2023-02-11T05:09:47;7.5;;;2.2;;
51515;SDS011;37603;55.614;37.326;2023-02-11T05:15:45;5.6;;;2.2;;
51515;SDS011;37603;55.614;37.326;2023-02-11T05:21:44;8.3;;;2.9;;
51515;SDS011;37603;55.614;37.326;2023-02-11T05:27:42;8.4;;;3.0;;
51515;SDS011;37603;55.614;37.326;2023-02-11T05:33:41;7.4;;;2.8;;
51515;SDS011;37603;55.614;37.326;2023-02-11T05:39:39;12.7;;;3.6;;
51515;SDS011;37603;55.614;37.326;2023-02-11T05:45:37;12.8;;;3.3;;
51515;SDS011;37603;55.614;37.326;2023-02-11T05:51:36;7.1;;;3.4;;
51515;SDS011;37603;55.614;37.326;2023-02-11T05:57:34;12.1;;;4.3;;
51515;SDS011;37603;55.614;37.326;2023-02-11T06:03:33;9.4;;;3.7;;
51515;SDS011;37603;55.614;37.326;2023-02-11T06:09:31;11.8;;;4.2;;
51515;SDS011;37603;55.614;37.326;2023-02-11T06:15:30;10.7;;;3.5;;
51515;SDS011;37603;55.614;37.326;2023-02-11T06:21:28;11.5;;;4.0;;
51515;SDS011;37603;55.614;37.326;2023-02-11T06:27:27;11.6;;;4.2;;
51515;SDS011;37603;55.614;37.326;2023-02-11T06:33:25;8.1;;;3.7;;
51515;SDS011;37603;55.614;37.326;2023-02-11T06:39:24;10.8;;;4.0;;
51515;SDS011;37603;55.614;37.326;2023-02-11T06:45:22;10.6;;;3.7;;
51515;SDS011;37603;55.614;37.326;2023-02-11T06:51:21;9.2;;;3.3;;
51515;SDS011;37603;55.614;37.326;2023-02-11T06:57:19;10.7;;;3.7;;
51515;SDS011;37603;55.614;37.326;2023-02-11T07:03:17;12.6;;;6.5;;
51515;SDS011;37603;55.614;37.326;2023-02-11T07:09:16;12.3;;;6.6;;
51515;SDS011;37603;55.614;37.326;2023-02-11T07:15:14;13.1;;;6.8;;
51515;SDS011;37603;55.614;37.326;2023-02-11T07:21:14;12.5;;;6.8;;
51515;SDS011;37603;55.614;37.326;2023-02-11T07:33:10;12.3;;;7.1;;
51515;SDS011;37603;55.614;37.326;2023-02-11T07:39:08;9.5;;;3.6;;
51515;SDS011;37603;55.614;37.326;2023-02-11T07:45:07;13.4;;;7.4;;
51515;SDS011;37603;55.614;37.326;2023-02-11T07:51:06;13.5;;;8.1;;
51515;SDS011;37603;55.614;37.326;2023-02-11T07:57:04;14.1;;;8.2;;
51515;SDS011;37603;55.614;37.326;2023-02-11T08:03:02;14.5;;;8.0;;
51515;SDS011;37603;55.614;37.326;2023-02-11T08:09:03;12.1;;;7.6;;
51515;SDS011;37603;55.614;37.326;2023-02-11T08:14:59;10.7;;;4.0;;
51515;SDS011;37603;55.614;37.326;2023-02-11T08:21:02;11.7;;;7.1;;
51515;SDS011;37603;55.614;37.326;2023-02-11T08:26:56;12.3;;;7.0;;
51515;SDS011;37603;55.614;37.326;2023-02-11T08:32:55;9.5;;;3.4;;
51515;SDS011;37603;55.614;37.326;2023-02-11T08:38:54;10.9;;;3.9;;
51515;SDS011;37603;55.614;37.326;2023-02-11T08:44:52;12.0;;;6.6;;
51515;SDS011;37603;55.614;37.326;2023-02-11T08:50:50;11.5;;;6.6;;
51515;SDS011;37603;55.614;37.326;2023-02-11T08:56:49;11.2;;;6.5;;
51515;SDS011;37603;55.614;37.326;2023-02-11T09:02:47;7.5;;;3.3;;
51515;SDS011;37603;55.614;37.326;2023-02-11T09:08:47;12.6;;;6.6;;
51515;SDS011;37603;55.614;37.326;2023-02-11T09:14:44;9.9;;;6.3;;
51515;SDS011;37603;55.614;37.326;2023-02-11T09:20:43;10.6;;;6.3;;
51515;SDS011;37603;55.614;37.326;2023-02-11T09:32:40;13.2;;;6.4;;
51515;SDS011;37603;55.614;37.326;2023-02-11T09:38:38;10.2;;;5.8;;
51515;SDS011;37603;55.614;37.326;2023-02-11T09:44:38;11.1;;;6.1;;
51515;SDS011;37603;55.614;37.326;2023-02-11T09:50:37;6.3;;;3.0;;
51515;SDS011;37603;55.614;37.326;2023-02-11T09:56:34;13.0;;;6.7;;
51515;SDS011;37603;55.614;37.326;2023-02-11T10:02:34;14.4;;;7.1;;
51515;SDS011;37603;55.614;37.326;2023-02-11T10:08:33;13.3;;;7.7;;
51515;SDS011;37603;55.614;37.326;2023-02-11T10:14:37;9.1;;;3.8;;
51515;SDS011;37603;55.614;37.326;2023-02-11T10:20:30;12.1;;;6.5;;
51515;SDS011;37603;55.614;37.326;2023-02-11T10:26:28;13.6;;;6.7;;
51515;SDS011;37603;55.614;37.326;2023-02-11T10:32:27;14.0;;;6.5;;
51515;SDS011;37603;55.614;37.326;2023-02-11T10:38:24;13.4;;;6.8;;
51515;SDS011;37603;55.614;37.326;2023-02-11T10:44:23;14.5;;;7.5;;
51515;SDS011;37603;55.614;37.326;2023-02-11T10:50:22;13.1;;;7.2;;
51515;SDS011;37603;55.614;37.326;2023-02-11T10:56:21;13.4;;;7.7;;
51515;SDS011;37603;55.614;37.326;2023-02-11T11:02:20;14.0;;;8.1;;
51515;SDS011;37603;55.614;37.326;2023-02-11T11:08:17;14.8;;;8.6;;
51515;SDS011;37603;55.614;37.326;2023-02-11T11:14:17;9.0;;;4.6;;
51515;SDS011;37603;55.614;37.326;2023-02-11T11:20:15;13.3;;;7.7;;
51515;SDS011;37603;55.614;37.326;2023-02-11T11:26:13;12.8;;;7.6;;
51515;SDS011;37603;55.614;37.326;2023-02-11T11:32:12;11.9;;;8.1;;
51515;SDS011;37603;55.614;37.326;2023-02-11T11:38:10;10.9;;;4.5;;
51515;SDS011;37603;55.614;37.326;2023-02-11T11:44:16;11.8;;;7.2;;
51515;SDS011;37603;55.614;37.326;2023-02-11T11:50:17;11.6;;;7.2;;
51515;SDS011;37603;55.614;37.326;2023-02-11T11:56:05;15.8;;;8.7;;
51515;SDS011;37603;55.614;37.326;2023-02-11T12:02:10;10.5;;;4.5;;
51515;SDS011;37603;55.614;37.326;2023-02-11T12:08:06;16.0;;;9.4;;
51515;SDS011;37603;55.614;37.326;2023-02-11T12:14:05;16.2;;;9.4;;
51515;SDS011;37603;55.614;37.326;2023-02-11T12:20:04;16.1;;;9.6;;
51515;SDS011;37603;55.614;37.326;2023-02-11T12:25:59;16.9;;;5.7;;
51515;SDS011;37603;55.614;37.326;2023-02-11T12:38:04;12.6;;;5.1;;
51515;SDS011;37603;55.614;37.326;2023-02-11T12:43:53;17.2;;;10.0;;
51515;SDS011;37603;55.614;37.326;2023-02-11T12:49:54;11.6;;;4.9;;
51515;SDS011;37603;55.614;37.326;2023-02-11T12:55:51;19.4;;;10.0;;
51515;SDS011;37603;55.614;37.326;2023-02-11T13:01:49;15.4;;;9.8;;
51515;SDS011;37603;55.614;37.326;2023-02-11T13:07:47;18.1;;;9.9;;
51515;SDS011;37603;55.614;37.326;2023-02-11T13:13:46;14.6;;;5.3;;
51515;SDS011;37603;55.614;37.326;2023-02-11T13:19:45;20.4;;;10.3;;
51515;SDS011;37603;55.614;37.326;2023-02-11T13:25:44;11.9;;;5.2;;
51515;SDS011;37603;55.614;37.326;2023-02-11T13:31:41;19.4;;;10.4;;
51515;SDS011;37603;55.614;37.326;2023-02-11T13:37:40;18.4;;;10.9;;
51515;SDS011;37603;55.614;37.326;2023-02-11T13:43:38;21.2;;;11.7;;
51515;SDS011;37603;55.614;37.326;2023-02-11T13:49:37;21.3;;;6.4;;
51515;SDS011;37603;55.614;37.326;2023-02-11T13:55:35;24.9;;;12.5;;
51515;SDS011;37603;55.614;37.326;2023-02-11T14:01:37;17.5;;;6.2;;
51515;SDS011;37603;55.614;37.326;2023-02-11T14:07:32;16.6;;;6.0;;
51515;SDS011;37603;55.614;37.326;2023-02-11T14:13:31;21.5;;;12.3;;
51515;SDS011;37603;55.614;37.326;2023-02-11T14:19:30;21.4;;;12.0;;
51515;SDS011;37603;55.614;37.326;2023-02-11T14:25:28;18.2;;;6.5;;
51515;SDS011;37603;55.614;37.326;2023-02-11T14:31:27;16.6;;;5.8;;
51515;SDS011;37603;55.614;37.326;2023-02-11T14:37:29;23.5;;;12.2;;
51515;SDS011;37603;55.614;37.326;2023-02-11T14:49:23;19.2;;;5.9;;
51515;SDS011;37603;55.614;37.326;2023-02-11T14:55:26;22.8;;;13.1;;
51515;SDS011;37603;55.614;37.326;2023-02-11T15:01:28;14.1;;;5.7;;
51515;SDS011;37603;55.614;37.326;2023-02-11T15:07:17;24.2;;;12.4;;
51515;SDS011;37603;55.614;37.326;2023-02-11T15:13:17;16.9;;;5.9;;
51515;SDS011;37603;55.614;37.326;2023-02-11T15:19:17;21.0;;;11.7;;
51515;SDS011;37603;55.614;37.326;2023-02-11T15:25:14;16.6;;;5.5;;
51515;SDS011;37603;55.614;37.326;2023-02-11T15:31:13;24.5;;;11.8;;
51515;SDS011;37603;55.614;37.326;2023-02-11T15:37:11;13.4;;;5.2;;
51515;SDS011;37603;55.614;37.326;2023-02-11T15:43:09;14.9;;;4.8;;
51515;SDS011;37603;55.614;37.326;2023-02-11T15:49:12;14.8;;;5.0;;
51515;SDS011;37603;55.614;37.326;2023-02-11T15:55:11;19.2;;;10.6;;
51515;SDS011;37603;55.614;37.326;2023-02-11T16:01:04;21.1;;;11.3;;
51515;SDS011;37603;55.614;37.326;2023-02-11T16:07:02;17.7;;;4.9;;
51515;SDS011;37603;55.614;37.326;2023-02-11T16:13:03;15.0;;;4.5;;
51515;SDS011;37603;55.614;37.326;2023-02-11T16:18:59;12.1;;;4.7;;
51515;SDS011;37603;55.614;37.326;2023-02-11T16:24:58;16.0;;;5.0;;
51515;SDS011;37603;55.614;37.326;2023-02-11T16:30:56;17.7;;;10.2;;
51515;SDS011;37603;55.614;37.326;2023-02-11T16:36:55;13.8;;;5.3;;
51515;SDS011;37603;55.614;37.326;2023-02-11T16:42:53;18.1;;;10.4;;
51515;SDS011;37603;55.614;37.326;2023-02-11T16:48:52;18.3;;;10.5;;
51515;SDS011;37603;55.614;37.326;2023-02-11T16:54:50;15.7;;;5.2;;
51515;SDS011;37603;55.614;37.326;2023-02-11T17:00:49;21.3;;;11.0;;
51515;SDS011;37603;55.614;37.326;2023-02-11T17:06:47;20.5;;;11.4;;
51515;SDS011;37603;55.614;37.326;2023-02-11T17:12:46;13.8;;;4.6;;
51515;SDS011;37603;55.614;37.326;2023-02-11T17:18:44;20.0;;;9.5;;
51515;SDS011;37603;55.614;37.326;2023-02-11T17:24:43;10.8;;;4.2;;
51515;SDS011;37603;55.614;37.326;2023-02-11T17:30:41;18.7;;;9.5;;
51515;SDS011;37603;55.614;37.326;2023-02-11T17:36:40;15.6;;;5.7;;
51515;SDS011;37603;55.614;37.326;2023-02-11T17:42:38;17.6;;;10.1;;
51515;SDS011;37603;55.614;37.326;2023-02-11T17:48:37;13.4;;;5.1;;
51515;SDS011;37603;55.614;37.326;2023-02-11T17:54:35;18.2;;;9.6;;
51515;SDS011;37603;55.614;37.326;2023-02-11T18:00:34;10.5;;;4.7;;
51515;SDS011;37603;55.614;37.326;2023-02-11T18:06:32;16.1;;;9.8;;
51515;SDS011;37603;55.614;37.326;2023-02-11T18:12:31;10.8;;;4.1;;
51515;SDS011;37603;55.614;37.326;2023-02-11T18:18:29;9.6;;;4.5;;
51515;SDS011;37603;55.614;37.326;2023-02-11T18:24:28;14.5;;;9.1;;
51515;SDS011;37603;55.614;37.326;2023-02-11T18:30:27;11.1;;;4.1;;
51515;SDS011;37603;55.614;37.326;2023-02-11T18:36:25;15.0;;;9.3;;
51515;SDS011;37603;55.614;37.326;2023-02-11T18:42:23;14.7;;;8.9;;
51515;SDS011;37603;55.614;37.326;2023-02-11T18:48:22;14.6;;;8.9;;
51515;SDS011;37603;55.614;37.326;2023-02-11T18:54:20;9.2;;;4.2;;
51515;SDS011;37603;55.614;37.326;2023-02-11T19:00:19;10.7;;;4.0;;
51515;SDS011;37603;55.614;37.326;2023-02-11T19:06:18;13.7;;;8.8;;
51515;SDS011;37603;55.614;37.326;2023-02-11T19:12:16;16.4;;;9.3;;
51515;SDS011;37603;55.614;37.326;2023-02-11T19:18:14;15.7;;;9.5;;
51515;SDS011;37603;55.614;37.326;2023-02-11T19:24:13;13.5;;;9.1;;
51515;SDS011;37603;55.614;37.326;2023-02-11T19:30:11;7.6;;;3.8;;
51515;SDS011;37603;55.614;37.326;2023-02-11T19:36:10;9.6;;;4.2;;
51515;SDS011;37603;55.614;37.326;2023-02-11T19:42:08;13.5;;;8.4;;
51515;SDS011;37603;55.614;37.326;2023-02-11T19:48:07;12.6;;;8.8;;
51515;SDS011;37603;55.614;37.326;2023-02-11T19:54:05;14.5;;;9.1;;
51515;SDS011;37603;55.614;37.326;2023-02-11T20:00:04;10.0;;;4.2;;
51515;SDS011;37603;55.614;37.326;2023-02-11T20:06:03;11.1;;;4.2;;
51515;SDS011;37603;55.614;37.326;2023-02-11T20:12:01;11.5;;;8.3;;
51515;SDS011;37603;55.614;37.326;2023-02-11T20:17:59;12.5;;;8.2;;
51515;SDS011;37603;55.614;37.326;2023-02-11T20:23:58;11.7;;;8.6;;
51515;SDS011;37603;55.614;37.326;2023-02-11T20:29:56;7.0;;;3.9;;
51515;SDS011;37603;55.614;37.326;2023-02-11T20:35:55;10.9;;;8.4;;
51515;SDS011;37603;55.614;37.326;2023-02-11T20:41:53;11.8;;;8.4;;
51515;SDS011;37603;55.614;37.326;2023-02-11T20:47:52;9.6;;;4.2;;
51515;SDS011;37603;55.614;37.326;2023-02-11T20:53:51;13.0;;;8.5;;
51515;SDS011;37603;55.614;37.326;2023-02-11T20:59:49;10.2;;;7.9;;
51515;SDS011;37603;55.614;37.326;2023-02-11T21:05:48;10.1;;;8.1;;
51515;SDS011;37603;55.614;37.326;2023-02-11T21:11:46;9.1;;;7.6;;
51515;SDS011;37603;55.614;37.326;2023-02-11T21:17:45;10.9;;;8.1;;
51515;SDS011;37603;55.614;37.326;2023-02-11T21:23:43;10.3;;;8.1;;
51515;SDS011;37603;55.614;37.326;2023-02-11T21:29:42;9.6;;;7.6;;
51515;SDS011;37603;55.614;37.326;2023-02-11T21:35:40;10.8;;;7.9;;
51515;SDS011;37603;55.614;37.326;2023-02-11T21:41:39;9.4;;;7.3;;
51515;SDS011;37603;55.614;37.326;2023-02-11T21:47:37;5.7;;;3.5;;
51515;SDS011;37603;55.614;37.326;2023-02-11T21:53:36;9.1;;;7.5;;
51515;SDS011;37603;55.614;37.326;2023-02-11T21:59:34;9.8;;;7.5;;
51515;SDS011;37603;55.614;37.326;2023-02-11T22:05:33;9.7;;;7.3;;
51515;SDS011;37603;55.614;37.326;2023-02-11T22:11:32;8.8;;;7.4;;
51515;SDS011;37603;55.614;37.326;2023-02-11T22:17:30;7.1;;;3.7;;
51515;SDS011;37603;55.614;37.326;2023-02-11T22:23:29;8.8;;;7.5;;
51515;SDS011;37603;55.614;37.326;2023-02-11T22:29:28;9.9;;;7.6;;
51515;SDS011;37603;55.614;37.326;2023-02-11T22:35:26;9.8;;;7.7;;
51515;SDS011;37603;55.614;37.326;2023-02-11T22:41:24;9.3;;;8.1;;
51515;SDS011;37603;55.614;37.326;2023-02-11T22:47:23;10.0;;;8.1;;
51515;SDS011;37603;55.614;37.326;2023-02-11T22:53:22;10.1;;;8.4;;
51515;SDS011;37603;55.614;37.326;2023-02-11T22:59:20;9.5;;;8.1;;
51515;SDS011;37603;55.614;37.326;2023-02-11T23:05:19;10.7;;;8.4;;
51515;SDS011;37603;55.614;37.326;2023-02-11T23:11:18;10.8;;;9.0;;
51515;SDS011;37603;55.614;37.326;2023-02-11T23:17:16;12.1;;;9.6;;
51515;SDS011;37603;55.614;37.326;2023-02-11T23:23:14;11.3;;;9.1;;
51515;SDS011;37603;55.614;37.326;2023-02-11T23:29:13;9.3;;;7.5;;
51515;SDS011;37603;55.614;37.326;2023-02-11T23:35:11;6.6;;;5.5;;
51515;SDS011;37603;55.614;37.326;2023-02-11T23:41:10;6.5;;;5.5;;
51515;SDS011;37603;55.614;37.326;2023-02-11T23:47:08;6.0;;;4.8;;
51515;SDS011;37603;55.614;37.326;2023-02-11T23:53:07;5.4;;;4.7;;
51515;SDS011;37603;55.614;37.326;2023-02-11T23:59:05;4.5;;;4.0;;
